sensor_id;sensor_type;location;lat;lon;timestamp;P1;durP1;ratioP1;P2;durP2;ratioP2
7179;SDS011;3631;42.152;24.756;2024-03-08T00:02:34;38.63;;;20.17;;
7179;SDS011;3631;42.152;24.756;2024-03-08T00:05:01;40.33;;;20.97;;
7179;SDS011;3631;42.152;24.756;2024-03-08T00:07:29;39.40;;;21.03;;
7179;SDS011;3631;42.152;24.756;2024-03-08T00:09:56;38.30;;;20.17;;
7179;SDS011;3631;42.152;24.756;2024-03-08T00:12:24;37.07;;;19.83;;
7179;SDS011;3631;42.152;24.756;2024-03-08T00:14:52;42.03;;;20.23;;
7179;SDS011;3631;42.152;24.756;2024-03-08T00:17:19;40.90;;;20.97;;
7179;SDS011;3631;42.152;24.756;2024-03-08T00:19:47;44.43;;;20.90;;
7179;SDS011;3631;42.152;24.756;2024-03-08T00:22:15;33.60;;;19.83;;
7179;SDS011;3631;42.152;24.756;2024-03-08T00:24:42;43.57;;;20.50;;
7179;SDS011;3631;42.152;24.756;2024-03-08T00:27:10;39.93;;;21.03;;
7179;SDS011;3631;42.152;24.756;2024-03-08T00:29:38;41.03;;;20.97;;
7179;SDS011;3631;42.152;24.756;2024-03-08T00:32:05;36.77;;;20.40;;
7179;SDS011;3631;42.152;24.756;2024-03-08T00:34:34;34.80;;;20.10;;
7179;SDS011;3631;42.152;24.756;2024-03-08T00:37:02;36.90;;;19.63;;
7179;SDS011;3631;42.152;24.756;2024-03-08T00:39:30;40.10;;;20.43;;
7179;SDS011;3631;42.152;24.756;2024-03-08T00:41:56;36.17;;;19.60;;
7179;SDS011;3631;42.152;24.756;2024-03-08T00:44:23;33.90;;;19.23;;
7179;SDS011;3631;42.152;24.756;2024-03-08T00:46:52;34.30;;;19.20;;
7179;SDS011;3631;42.152;24.756;2024-03-08T00:49:18;33.50;;;18.27;;
7179;SDS011;3631;42.152;24.756;2024-03-08T00:51:45;32.67;;;19.10;;
7179;SDS011;3631;42.152;24.756;2024-03-08T00:54:12;37.87;;;19.57;;
7179;SDS011;3631;42.152;24.756;2024-03-08T00:56:40;36.27;;;19.93;;
7179;SDS011;3631;42.152;24.756;2024-03-08T00:59:07;37.20;;;19.87;;
7179;SDS011;3631;42.152;24.756;2024-03-08T01:01:34;33.97;;;19.90;;
7179;SDS011;3631;42.152;24.756;2024-03-08T01:04:02;36.63;;;19.63;;
7179;SDS011;3631;42.152;24.756;2024-03-08T01:06:29;34.30;;;18.70;;
7179;SDS011;3631;42.152;24.756;2024-03-08T01:08:56;35.70;;;19.70;;
7179;SDS011;3631;42.152;24.756;2024-03-08T01:11:23;33.40;;;18.60;;
7179;SDS011;3631;42.152;24.756;2024-03-08T01:13:50;35.60;;;18.63;;
7179;SDS011;3631;42.152;24.756;2024-03-08T01:16:18;32.27;;;19.13;;
7179;SDS011;3631;42.152;24.756;2024-03-08T01:18:46;31.97;;;18.27;;
7179;SDS011;3631;42.152;24.756;2024-03-08T01:21:15;32.17;;;19.83;;
7179;SDS011;3631;42.152;24.756;2024-03-08T01:23:42;32.63;;;17.80;;
7179;SDS011;3631;42.152;24.756;2024-03-08T01:26:10;36.77;;;19.50;;
7179;SDS011;3631;42.152;24.756;2024-03-08T01:28:37;39.13;;;19.60;;
7179;SDS011;3631;42.152;24.756;2024-03-08T01:31:04;36.97;;;19.07;;
7179;SDS011;3631;42.152;24.756;2024-03-08T01:33:31;33.80;;;19.43;;
7179;SDS011;3631;42.152;24.756;2024-03-08T01:35:58;38.40;;;19.20;;
7179;SDS011;3631;42.152;24.756;2024-03-08T01:38:26;33.00;;;19.53;;
7179;SDS011;3631;42.152;24.756;2024-03-08T01:40:53;33.17;;;19.27;;
7179;SDS011;3631;42.152;24.756;2024-03-08T01:43:20;38.33;;;20.27;;
7179;SDS011;3631;42.152;24.756;2024-03-08T01:45:48;37.30;;;19.90;;
7179;SDS011;3631;42.152;24.756;2024-03-08T01:48:15;33.20;;;20.07;;
7179;SDS011;3631;42.152;24.756;2024-03-08T01:50:43;34.20;;;19.73;;
7179;SDS011;3631;42.152;24.756;2024-03-08T01:53:10;36.83;;;19.27;;
7179;SDS011;3631;42.152;24.756;2024-03-08T01:55:41;32.07;;;19.00;;
7179;SDS011;3631;42.152;24.756;2024-03-08T01:58:11;34.23;;;19.10;;
7179;SDS011;3631;42.152;24.756;2024-03-08T02:00:40;33.20;;;19.13;;
7179;SDS011;3631;42.152;24.756;2024-03-08T02:03:10;35.70;;;19.43;;
7179;SDS011;3631;42.152;24.756;2024-03-08T02:05:37;38.87;;;20.07;;
7179;SDS011;3631;42.152;24.756;2024-03-08T02:08:06;36.17;;;19.63;;
7179;SDS011;3631;42.152;24.756;2024-03-08T02:10:37;33.97;;;19.80;;
7179;SDS011;3631;42.152;24.756;2024-03-08T02:13:06;36.40;;;19.40;;
7179;SDS011;3631;42.152;24.756;2024-03-08T02:18:18;38.50;;;19.83;;
7179;SDS011;3631;42.152;24.756;2024-03-08T02:20:46;31.73;;;18.60;;
7179;SDS011;3631;42.152;24.756;2024-03-08T02:23:13;35.73;;;18.33;;
7179;SDS011;3631;42.152;24.756;2024-03-08T02:25:41;30.70;;;18.33;;
7179;SDS011;3631;42.152;24.756;2024-03-08T02:28:08;32.93;;;18.10;;
7179;SDS011;3631;42.152;24.756;2024-03-08T02:30:36;37.20;;;18.13;;
7179;SDS011;3631;42.152;24.756;2024-03-08T02:33:03;30.27;;;17.63;;
7179;SDS011;3631;42.152;24.756;2024-03-08T02:35:31;32.63;;;18.00;;
7179;SDS011;3631;42.152;24.756;2024-03-08T02:37:59;33.23;;;17.73;;
7179;SDS011;3631;42.152;24.756;2024-03-08T02:40:26;31.93;;;17.20;;
7179;SDS011;3631;42.152;24.756;2024-03-08T02:42:53;33.53;;;19.03;;
7179;SDS011;3631;42.152;24.756;2024-03-08T02:45:20;30.03;;;17.30;;
7179;SDS011;3631;42.152;24.756;2024-03-08T02:47:47;33.07;;;17.40;;
7179;SDS011;3631;42.152;24.756;2024-03-08T02:50:15;26.73;;;17.20;;
7179;SDS011;3631;42.152;24.756;2024-03-08T02:52:42;29.00;;;16.63;;
7179;SDS011;3631;42.152;24.756;2024-03-08T02:55:13;26.33;;;16.50;;
7179;SDS011;3631;42.152;24.756;2024-03-08T02:57:41;31.20;;;16.50;;
7179;SDS011;3631;42.152;24.756;2024-03-08T03:00:09;27.23;;;16.50;;
7179;SDS011;3631;42.152;24.756;2024-03-08T03:02:36;25.20;;;15.33;;
7179;SDS011;3631;42.152;24.756;2024-03-08T03:05:04;30.77;;;17.57;;
7179;SDS011;3631;42.152;24.756;2024-03-08T03:07:31;26.53;;;16.37;;
7179;SDS011;3631;42.152;24.756;2024-03-08T03:09:59;34.10;;;17.57;;
7179;SDS011;3631;42.152;24.756;2024-03-08T03:12:28;30.80;;;17.53;;
7179;SDS011;3631;42.152;24.756;2024-03-08T03:14:55;33.53;;;16.90;;
7179;SDS011;3631;42.152;24.756;2024-03-08T03:17:22;30.03;;;17.97;;
7179;SDS011;3631;42.152;24.756;2024-03-08T03:19:49;31.97;;;17.70;;
7179;SDS011;3631;42.152;24.756;2024-03-08T03:22:16;32.30;;;17.47;;
7179;SDS011;3631;42.152;24.756;2024-03-08T03:24:44;33.37;;;19.27;;
7179;SDS011;3631;42.152;24.756;2024-03-08T03:27:11;38.90;;;19.87;;
7179;SDS011;3631;42.152;24.756;2024-03-08T03:29:39;35.00;;;19.27;;
7179;SDS011;3631;42.152;24.756;2024-03-08T03:32:10;31.03;;;18.73;;
7179;SDS011;3631;42.152;24.756;2024-03-08T03:34:37;34.10;;;18.23;;
7179;SDS011;3631;42.152;24.756;2024-03-08T03:37:04;33.80;;;19.77;;
7179;SDS011;3631;42.152;24.756;2024-03-08T03:39:32;35.97;;;18.73;;
7179;SDS011;3631;42.152;24.756;2024-03-08T03:41:59;33.00;;;18.17;;
7179;SDS011;3631;42.152;24.756;2024-03-08T03:44:27;38.03;;;19.83;;
7179;SDS011;3631;42.152;24.756;2024-03-08T03:46:55;34.17;;;19.83;;
7179;SDS011;3631;42.152;24.756;2024-03-08T03:49:22;37.17;;;19.87;;
7179;SDS011;3631;42.152;24.756;2024-03-08T03:51:49;38.80;;;18.67;;
7179;SDS011;3631;42.152;24.756;2024-03-08T03:54:16;36.67;;;18.57;;
7179;SDS011;3631;42.152;24.756;2024-03-08T03:56:42;36.53;;;19.13;;
7179;SDS011;3631;42.152;24.756;2024-03-08T03:59:10;38.23;;;20.00;;
7179;SDS011;3631;42.152;24.756;2024-03-08T04:01:41;39.13;;;21.23;;
7179;SDS011;3631;42.152;24.756;2024-03-08T04:04:10;39.43;;;19.63;;
7179;SDS011;3631;42.152;24.756;2024-03-08T04:06:37;39.87;;;19.37;;
7179;SDS011;3631;42.152;24.756;2024-03-08T04:09:04;37.27;;;20.93;;
7179;SDS011;3631;42.152;24.756;2024-03-08T04:11:31;37.00;;;20.40;;
7179;SDS011;3631;42.152;24.756;2024-03-08T04:13:58;38.03;;;19.33;;
7179;SDS011;3631;42.152;24.756;2024-03-08T04:16:25;35.00;;;18.30;;
7179;SDS011;3631;42.152;24.756;2024-03-08T04:18:52;35.23;;;18.73;;
7179;SDS011;3631;42.152;24.756;2024-03-08T04:21:20;39.37;;;21.10;;
7179;SDS011;3631;42.152;24.756;2024-03-08T04:23:47;43.30;;;21.67;;
7179;SDS011;3631;42.152;24.756;2024-03-08T04:26:15;46.03;;;23.03;;
7179;SDS011;3631;42.152;24.756;2024-03-08T04:28:42;42.00;;;21.07;;
7179;SDS011;3631;42.152;24.756;2024-03-08T04:31:08;45.00;;;23.00;;
7179;SDS011;3631;42.152;24.756;2024-03-08T04:33:35;45.47;;;20.60;;
7179;SDS011;3631;42.152;24.756;2024-03-08T04:36:02;35.17;;;18.73;;
7179;SDS011;3631;42.152;24.756;2024-03-08T04:38:31;38.00;;;19.43;;
7179;SDS011;3631;42.152;24.756;2024-03-08T04:40:58;36.70;;;17.63;;
7179;SDS011;3631;42.152;24.756;2024-03-08T04:43:27;40.70;;;21.30;;
7179;SDS011;3631;42.152;24.756;2024-03-08T04:45:55;52.70;;;26.40;;
7179;SDS011;3631;42.152;24.756;2024-03-08T04:48:22;44.50;;;22.57;;
7179;SDS011;3631;42.152;24.756;2024-03-08T04:50:52;39.00;;;20.67;;
7179;SDS011;3631;42.152;24.756;2024-03-08T04:53:19;41.63;;;20.67;;
7179;SDS011;3631;42.152;24.756;2024-03-08T04:55:48;39.17;;;21.30;;
7179;SDS011;3631;42.152;24.756;2024-03-08T04:58:14;41.20;;;21.00;;
7179;SDS011;3631;42.152;24.756;2024-03-08T05:00:41;38.73;;;21.30;;
7179;SDS011;3631;42.152;24.756;2024-03-08T05:03:08;36.40;;;20.20;;
7179;SDS011;3631;42.152;24.756;2024-03-08T05:05:35;33.70;;;18.43;;
7179;SDS011;3631;42.152;24.756;2024-03-08T05:08:02;37.93;;;20.10;;
7179;SDS011;3631;42.152;24.756;2024-03-08T05:10:30;41.53;;;21.50;;
7179;SDS011;3631;42.152;24.756;2024-03-08T05:12:59;43.10;;;20.27;;
7179;SDS011;3631;42.152;24.756;2024-03-08T05:15:26;36.17;;;20.20;;
7179;SDS011;3631;42.152;24.756;2024-03-08T05:17:53;43.70;;;22.30;;
7179;SDS011;3631;42.152;24.756;2024-03-08T05:20:21;42.23;;;21.73;;
7179;SDS011;3631;42.152;24.756;2024-03-08T05:22:48;46.73;;;20.70;;
7179;SDS011;3631;42.152;24.756;2024-03-08T05:25:15;45.40;;;21.70;;
7179;SDS011;3631;42.152;24.756;2024-03-08T05:27:43;48.73;;;22.37;;
7179;SDS011;3631;42.152;24.756;2024-03-08T05:30:14;45.33;;;22.90;;
7179;SDS011;3631;42.152;24.756;2024-03-08T05:32:42;42.03;;;22.37;;
7179;SDS011;3631;42.152;24.756;2024-03-08T05:35:13;44.20;;;22.47;;
7179;SDS011;3631;42.152;24.756;2024-03-08T05:37:41;46.73;;;21.73;;
7179;SDS011;3631;42.152;24.756;2024-03-08T05:40:08;47.30;;;23.53;;
7179;SDS011;3631;42.152;24.756;2024-03-08T05:42:35;46.80;;;22.43;;
7179;SDS011;3631;42.152;24.756;2024-03-08T05:45:03;45.50;;;22.97;;
7179;SDS011;3631;42.152;24.756;2024-03-08T05:47:32;41.03;;;20.87;;
7179;SDS011;3631;42.152;24.756;2024-03-08T05:49:59;44.40;;;21.80;;
7179;SDS011;3631;42.152;24.756;2024-03-08T05:52:26;42.80;;;23.07;;
7179;SDS011;3631;42.152;24.756;2024-03-08T05:54:53;43.07;;;22.10;;
7179;SDS011;3631;42.152;24.756;2024-03-08T05:57:20;42.47;;;23.20;;
7179;SDS011;3631;42.152;24.756;2024-03-08T05:59:48;41.93;;;21.77;;
7179;SDS011;3631;42.152;24.756;2024-03-08T06:02:15;49.63;;;24.43;;
7179;SDS011;3631;42.152;24.756;2024-03-08T06:04:45;51.33;;;24.93;;
7179;SDS011;3631;42.152;24.756;2024-03-08T06:07:13;41.43;;;22.43;;
7179;SDS011;3631;42.152;24.756;2024-03-08T06:09:40;45.23;;;22.73;;
7179;SDS011;3631;42.152;24.756;2024-03-08T06:12:10;40.97;;;22.57;;
7179;SDS011;3631;42.152;24.756;2024-03-08T06:14:37;50.63;;;24.20;;
7179;SDS011;3631;42.152;24.756;2024-03-08T06:17:04;46.30;;;23.27;;
7179;SDS011;3631;42.152;24.756;2024-03-08T06:19:32;44.10;;;22.17;;
7179;SDS011;3631;42.152;24.756;2024-03-08T06:22:00;43.80;;;23.47;;
7179;SDS011;3631;42.152;24.756;2024-03-08T06:24:30;50.37;;;23.83;;
7179;SDS011;3631;42.152;24.756;2024-03-08T06:26:57;42.70;;;23.23;;
7179;SDS011;3631;42.152;24.756;2024-03-08T06:29:24;43.23;;;22.37;;
7179;SDS011;3631;42.152;24.756;2024-03-08T06:31:51;42.83;;;22.40;;
7179;SDS011;3631;42.152;24.756;2024-03-08T06:34:18;40.70;;;21.13;;
7179;SDS011;3631;42.152;24.756;2024-03-08T06:36:45;40.90;;;21.90;;
7179;SDS011;3631;42.152;24.756;2024-03-08T06:39:14;40.80;;;22.10;;
7179;SDS011;3631;42.152;24.756;2024-03-08T06:41:40;40.80;;;21.20;;
7179;SDS011;3631;42.152;24.756;2024-03-08T06:44:09;39.47;;;21.20;;
7179;SDS011;3631;42.152;24.756;2024-03-08T06:46:36;44.60;;;21.87;;
7179;SDS011;3631;42.152;24.756;2024-03-08T06:49:03;45.97;;;21.87;;
7179;SDS011;3631;42.152;24.756;2024-03-08T06:51:32;41.17;;;22.27;;
7179;SDS011;3631;42.152;24.756;2024-03-08T06:53:59;48.17;;;23.40;;
7179;SDS011;3631;42.152;24.756;2024-03-08T06:56:27;46.77;;;22.50;;
7179;SDS011;3631;42.152;24.756;2024-03-08T06:58:54;39.00;;;21.80;;
7179;SDS011;3631;42.152;24.756;2024-03-08T07:01:21;44.13;;;22.57;;
7179;SDS011;3631;42.152;24.756;2024-03-08T07:03:48;43.87;;;21.47;;
7179;SDS011;3631;42.152;24.756;2024-03-08T07:06:17;41.03;;;21.23;;
7179;SDS011;3631;42.152;24.756;2024-03-08T07:08:45;43.00;;;22.93;;
7179;SDS011;3631;42.152;24.756;2024-03-08T07:11:13;43.63;;;23.00;;
7179;SDS011;3631;42.152;24.756;2024-03-08T07:13:44;43.67;;;21.77;;
7179;SDS011;3631;42.152;24.756;2024-03-08T07:16:11;43.30;;;22.47;;
7179;SDS011;3631;42.152;24.756;2024-03-08T07:18:38;44.03;;;22.63;;
7179;SDS011;3631;42.152;24.756;2024-03-08T07:21:08;43.10;;;21.33;;
7179;SDS011;3631;42.152;24.756;2024-03-08T07:23:35;48.30;;;22.67;;
7179;SDS011;3631;42.152;24.756;2024-03-08T07:26:34;45.87;;;21.83;;
7179;SDS011;3631;42.152;24.756;2024-03-08T07:29:03;39.10;;;20.77;;
7179;SDS011;3631;42.152;24.756;2024-03-08T07:31:30;39.20;;;20.87;;
7179;SDS011;3631;42.152;24.756;2024-03-08T07:34:10;41.80;;;22.30;;
7179;SDS011;3631;42.152;24.756;2024-03-08T07:36:37;45.07;;;21.70;;
7179;SDS011;3631;42.152;24.756;2024-03-08T07:39:04;44.47;;;23.07;;
7179;SDS011;3631;42.152;24.756;2024-03-08T07:41:36;40.30;;;22.13;;
7179;SDS011;3631;42.152;24.756;2024-03-08T07:44:06;44.83;;;22.00;;
7179;SDS011;3631;42.152;24.756;2024-03-08T07:46:34;46.13;;;22.53;;
7179;SDS011;3631;42.152;24.756;2024-03-08T07:49:02;42.63;;;22.83;;
7179;SDS011;3631;42.152;24.756;2024-03-08T07:51:29;42.80;;;22.63;;
7179;SDS011;3631;42.152;24.756;2024-03-08T07:53:56;44.20;;;21.63;;
7179;SDS011;3631;42.152;24.756;2024-03-08T07:56:23;41.00;;;21.40;;
7179;SDS011;3631;42.152;24.756;2024-03-08T07:58:50;42.03;;;21.80;;
7179;SDS011;3631;42.152;24.756;2024-03-08T08:01:19;37.47;;;20.30;;
7179;SDS011;3631;42.152;24.756;2024-03-08T08:03:47;42.30;;;20.93;;
7179;SDS011;3631;42.152;24.756;2024-03-08T08:06:14;41.17;;;22.37;;
7179;SDS011;3631;42.152;24.756;2024-03-08T08:08:41;40.33;;;21.23;;
7179;SDS011;3631;42.152;24.756;2024-03-08T08:11:09;39.37;;;19.60;;
7179;SDS011;3631;42.152;24.756;2024-03-08T08:13:36;37.40;;;20.40;;
7179;SDS011;3631;42.152;24.756;2024-03-08T08:16:04;40.53;;;20.73;;
7179;SDS011;3631;42.152;24.756;2024-03-08T08:18:33;34.93;;;20.40;;
7179;SDS011;3631;42.152;24.756;2024-03-08T08:21:00;33.00;;;19.13;;
7179;SDS011;3631;42.152;24.756;2024-03-08T08:23:27;38.03;;;20.60;;
7179;SDS011;3631;42.152;24.756;2024-03-08T08:25:54;35.00;;;19.37;;
7179;SDS011;3631;42.152;24.756;2024-03-08T08:28:21;33.53;;;19.20;;
7179;SDS011;3631;42.152;24.756;2024-03-08T08:30:49;35.33;;;18.87;;
7179;SDS011;3631;42.152;24.756;2024-03-08T08:33:17;39.13;;;21.43;;
7179;SDS011;3631;42.152;24.756;2024-03-08T08:35:46;34.87;;;18.73;;
7179;SDS011;3631;42.152;24.756;2024-03-08T08:38:13;33.53;;;19.60;;
7179;SDS011;3631;42.152;24.756;2024-03-08T08:40:40;38.13;;;20.27;;
7179;SDS011;3631;42.152;24.756;2024-03-08T08:43:07;32.17;;;19.60;;
7179;SDS011;3631;42.152;24.756;2024-03-08T08:45:34;32.63;;;18.00;;
7179;SDS011;3631;42.152;24.756;2024-03-08T08:48:01;32.77;;;18.80;;
7179;SDS011;3631;42.152;24.756;2024-03-08T08:50:30;37.63;;;19.20;;
7179;SDS011;3631;42.152;24.756;2024-03-08T08:52:58;32.70;;;19.17;;
7179;SDS011;3631;42.152;24.756;2024-03-08T08:55:25;29.20;;;16.90;;
7179;SDS011;3631;42.152;24.756;2024-03-08T08:57:52;29.83;;;16.53;;
7179;SDS011;3631;42.152;24.756;2024-03-08T09:00:21;29.10;;;16.57;;
7179;SDS011;3631;42.152;24.756;2024-03-08T09:02:52;37.30;;;18.37;;
7179;SDS011;3631;42.152;24.756;2024-03-08T09:05:20;33.97;;;17.03;;
7179;SDS011;3631;42.152;24.756;2024-03-08T09:07:49;32.90;;;17.90;;
7179;SDS011;3631;42.152;24.756;2024-03-08T09:10:17;33.00;;;19.37;;
7179;SDS011;3631;42.152;24.756;2024-03-08T09:12:44;29.80;;;16.73;;
7179;SDS011;3631;42.152;24.756;2024-03-08T09:15:13;32.00;;;16.70;;
7179;SDS011;3631;42.152;24.756;2024-03-08T09:17:40;30.10;;;16.07;;
7179;SDS011;3631;42.152;24.756;2024-03-08T09:20:08;28.40;;;16.37;;
7179;SDS011;3631;42.152;24.756;2024-03-08T09:22:39;28.50;;;16.13;;
7179;SDS011;3631;42.152;24.756;2024-03-08T09:25:07;29.03;;;16.97;;
7179;SDS011;3631;42.152;24.756;2024-03-08T09:27:36;28.90;;;16.53;;
7179;SDS011;3631;42.152;24.756;2024-03-08T09:30:05;29.40;;;17.10;;
7179;SDS011;3631;42.152;24.756;2024-03-08T09:32:32;30.43;;;17.17;;
7179;SDS011;3631;42.152;24.756;2024-03-08T09:34:59;33.23;;;17.53;;
7179;SDS011;3631;42.152;24.756;2024-03-08T09:37:26;30.23;;;17.33;;
7179;SDS011;3631;42.152;24.756;2024-03-08T09:39:53;29.27;;;16.57;;
7179;SDS011;3631;42.152;24.756;2024-03-08T09:42:20;29.23;;;15.83;;
7179;SDS011;3631;42.152;24.756;2024-03-08T09:44:48;25.07;;;14.73;;
7179;SDS011;3631;42.152;24.756;2024-03-08T09:47:16;26.70;;;16.00;;
7179;SDS011;3631;42.152;24.756;2024-03-08T09:49:44;25.57;;;14.80;;
7179;SDS011;3631;42.152;24.756;2024-03-08T09:52:11;21.63;;;15.07;;
7179;SDS011;3631;42.152;24.756;2024-03-08T09:54:39;30.83;;;14.93;;
7179;SDS011;3631;42.152;24.756;2024-03-08T09:57:09;23.97;;;14.37;;
7179;SDS011;3631;42.152;24.756;2024-03-08T09:59:37;21.53;;;14.00;;
7179;SDS011;3631;42.152;24.756;2024-03-08T10:02:15;20.73;;;13.70;;
7179;SDS011;3631;42.152;24.756;2024-03-08T10:04:43;23.40;;;14.70;;
7179;SDS011;3631;42.152;24.756;2024-03-08T10:07:12;22.07;;;14.00;;
7179;SDS011;3631;42.152;24.756;2024-03-08T10:09:39;26.30;;;14.57;;
7179;SDS011;3631;42.152;24.756;2024-03-08T10:12:12;29.57;;;15.97;;
7179;SDS011;3631;42.152;24.756;2024-03-08T10:14:40;24.33;;;16.30;;
7179;SDS011;3631;42.152;24.756;2024-03-08T10:17:07;26.47;;;15.83;;
7179;SDS011;3631;42.152;24.756;2024-03-08T10:19:36;27.37;;;15.63;;
7179;SDS011;3631;42.152;24.756;2024-03-08T10:22:04;22.83;;;15.63;;
7179;SDS011;3631;42.152;24.756;2024-03-08T10:24:31;20.03;;;14.00;;
7179;SDS011;3631;42.152;24.756;2024-03-08T10:27:00;22.03;;;14.07;;
7179;SDS011;3631;42.152;24.756;2024-03-08T10:29:30;26.07;;;14.33;;
7179;SDS011;3631;42.152;24.756;2024-03-08T10:31:57;19.37;;;12.83;;
7179;SDS011;3631;42.152;24.756;2024-03-08T10:34:25;21.63;;;13.50;;
7179;SDS011;3631;42.152;24.756;2024-03-08T10:36:53;27.53;;;15.00;;
7179;SDS011;3631;42.152;24.756;2024-03-08T10:39:29;17.60;;;13.00;;
7179;SDS011;3631;42.152;24.756;2024-03-08T10:42:02;23.13;;;13.43;;
7179;SDS011;3631;42.152;24.756;2024-03-08T10:44:38;26.90;;;15.27;;
7179;SDS011;3631;42.152;24.756;2024-03-08T10:47:12;24.93;;;14.77;;
7179;SDS011;3631;42.152;24.756;2024-03-08T10:49:50;27.30;;;16.27;;
7179;SDS011;3631;42.152;24.756;2024-03-08T10:52:21;29.30;;;15.77;;
7179;SDS011;3631;42.152;24.756;2024-03-08T10:54:48;23.83;;;16.10;;
7179;SDS011;3631;42.152;24.756;2024-03-08T10:57:19;27.20;;;15.00;;
7179;SDS011;3631;42.152;24.756;2024-03-08T10:59:49;23.40;;;14.97;;
7179;SDS011;3631;42.152;24.756;2024-03-08T11:02:17;24.97;;;14.53;;
7179;SDS011;3631;42.152;24.756;2024-03-08T11:04:48;19.57;;;14.13;;
7179;SDS011;3631;42.152;24.756;2024-03-08T11:07:16;27.77;;;15.07;;
7179;SDS011;3631;42.152;24.756;2024-03-08T11:09:46;26.57;;;15.27;;
7179;SDS011;3631;42.152;24.756;2024-03-08T11:12:20;21.70;;;14.23;;
7179;SDS011;3631;42.152;24.756;2024-03-08T11:14:50;23.77;;;14.37;;
7179;SDS011;3631;42.152;24.756;2024-03-08T11:17:20;21.77;;;14.00;;
7179;SDS011;3631;42.152;24.756;2024-03-08T11:19:48;25.10;;;13.90;;
7179;SDS011;3631;42.152;24.756;2024-03-08T11:22:23;18.60;;;13.60;;
7179;SDS011;3631;42.152;24.756;2024-03-08T11:24:59;19.80;;;12.77;;
7179;SDS011;3631;42.152;24.756;2024-03-08T11:27:29;26.97;;;14.13;;
7179;SDS011;3631;42.152;24.756;2024-03-08T11:30:00;19.67;;;12.67;;
7179;SDS011;3631;42.152;24.756;2024-03-08T11:32:36;20.47;;;13.17;;
7179;SDS011;3631;42.152;24.756;2024-03-08T11:35:05;17.30;;;12.87;;
7179;SDS011;3631;42.152;24.756;2024-03-08T11:37:35;19.73;;;12.83;;
7179;SDS011;3631;42.152;24.756;2024-03-08T11:40:11;23.87;;;13.17;;
7179;SDS011;3631;42.152;24.756;2024-03-08T11:42:43;15.20;;;10.83;;
7179;SDS011;3631;42.152;24.756;2024-03-08T11:45:12;16.67;;;11.60;;
7179;SDS011;3631;42.152;24.756;2024-03-08T11:47:41;18.97;;;11.90;;
7179;SDS011;3631;42.152;24.756;2024-03-08T11:50:11;18.90;;;11.70;;
7179;SDS011;3631;42.152;24.756;2024-03-08T11:52:38;15.73;;;11.17;;
7179;SDS011;3631;42.152;24.756;2024-03-08T11:55:07;16.50;;;11.00;;
7179;SDS011;3631;42.152;24.756;2024-03-08T11:57:35;15.67;;;10.00;;
7179;SDS011;3631;42.152;24.756;2024-03-08T12:00:03;16.70;;;10.53;;
7179;SDS011;3631;42.152;24.756;2024-03-08T12:02:32;14.60;;;9.37;;
7179;SDS011;3631;42.152;24.756;2024-03-08T12:05:03;11.50;;;9.77;;
7179;SDS011;3631;42.152;24.756;2024-03-08T12:07:34;10.57;;;9.20;;
7179;SDS011;3631;42.152;24.756;2024-03-08T12:10:15;13.93;;;9.03;;
7179;SDS011;3631;42.152;24.756;2024-03-08T12:12:44;15.07;;;9.70;;
7179;SDS011;3631;42.152;24.756;2024-03-08T12:15:12;19.73;;;12.20;;
7179;SDS011;3631;42.152;24.756;2024-03-08T12:17:40;16.23;;;11.20;;
7179;SDS011;3631;42.152;24.756;2024-03-08T12:20:12;20.30;;;12.27;;
7179;SDS011;3631;42.152;24.756;2024-03-08T12:22:41;20.43;;;13.03;;
7179;SDS011;3631;42.152;24.756;2024-03-08T12:25:09;23.67;;;13.10;;
7179;SDS011;3631;42.152;24.756;2024-03-08T12:27:39;18.67;;;13.53;;
7179;SDS011;3631;42.152;24.756;2024-03-08T12:30:16;26.83;;;12.93;;
7179;SDS011;3631;42.152;24.756;2024-03-08T12:32:48;23.50;;;12.73;;
7179;SDS011;3631;42.152;24.756;2024-03-08T12:35:18;23.77;;;11.53;;
7179;SDS011;3631;42.152;24.756;2024-03-08T12:37:47;15.40;;;11.17;;
7179;SDS011;3631;42.152;24.756;2024-03-08T12:40:16;15.73;;;10.83;;
7179;SDS011;3631;42.152;24.756;2024-03-08T12:42:45;14.57;;;10.03;;
7179;SDS011;3631;42.152;24.756;2024-03-08T12:45:13;17.13;;;11.10;;
7179;SDS011;3631;42.152;24.756;2024-03-08T12:47:40;14.70;;;9.57;;
7179;SDS011;3631;42.152;24.756;2024-03-08T12:50:09;17.83;;;11.43;;
7179;SDS011;3631;42.152;24.756;2024-03-08T12:52:37;18.50;;;10.47;;
7179;SDS011;3631;42.152;24.756;2024-03-08T12:55:04;14.97;;;10.00;;
7179;SDS011;3631;42.152;24.756;2024-03-08T12:57:33;12.47;;;9.03;;
7179;SDS011;3631;42.152;24.756;2024-03-08T13:00:03;12.80;;;9.80;;
7179;SDS011;3631;42.152;24.756;2024-03-08T13:02:31;13.50;;;9.50;;
7179;SDS011;3631;42.152;24.756;2024-03-08T13:04:58;11.93;;;9.03;;
7179;SDS011;3631;42.152;24.756;2024-03-08T13:07:25;11.97;;;8.83;;
7179;SDS011;3631;42.152;24.756;2024-03-08T13:09:52;13.93;;;8.67;;
7179;SDS011;3631;42.152;24.756;2024-03-08T13:12:20;11.40;;;8.63;;
7179;SDS011;3631;42.152;24.756;2024-03-08T13:14:49;12.30;;;9.17;;
7179;SDS011;3631;42.152;24.756;2024-03-08T13:17:17;12.07;;;9.17;;
7179;SDS011;3631;42.152;24.756;2024-03-08T13:19:44;12.00;;;9.27;;
7179;SDS011;3631;42.152;24.756;2024-03-08T13:22:11;13.43;;;9.33;;
7179;SDS011;3631;42.152;24.756;2024-03-08T13:24:38;10.10;;;7.70;;
7179;SDS011;3631;42.152;24.756;2024-03-08T13:27:07;11.33;;;8.37;;
7179;SDS011;3631;42.152;24.756;2024-03-08T13:29:44;11.07;;;8.63;;
7179;SDS011;3631;42.152;24.756;2024-03-08T13:32:13;16.10;;;8.37;;
7179;SDS011;3631;42.152;24.756;2024-03-08T13:34:42;11.67;;;9.33;;
7179;SDS011;3631;42.152;24.756;2024-03-08T13:37:10;11.47;;;8.20;;
7179;SDS011;3631;42.152;24.756;2024-03-08T13:39:37;13.07;;;7.97;;
7179;SDS011;3631;42.152;24.756;2024-03-08T13:42:09;10.57;;;8.00;;
7179;SDS011;3631;42.152;24.756;2024-03-08T13:44:38;8.43;;;6.97;;
7179;SDS011;3631;42.152;24.756;2024-03-08T13:47:06;11.17;;;8.37;;
7179;SDS011;3631;42.152;24.756;2024-03-08T13:49:33;12.73;;;7.43;;
7179;SDS011;3631;42.152;24.756;2024-03-08T13:52:01;9.83;;;7.27;;
7179;SDS011;3631;42.152;24.756;2024-03-08T13:54:29;10.67;;;7.30;;
7179;SDS011;3631;42.152;24.756;2024-03-08T13:56:57;10.50;;;7.67;;
7179;SDS011;3631;42.152;24.756;2024-03-08T13:59:24;12.20;;;8.17;;
7179;SDS011;3631;42.152;24.756;2024-03-08T14:01:54;9.47;;;7.23;;
7179;SDS011;3631;42.152;24.756;2024-03-08T14:04:23;9.70;;;7.67;;
7179;SDS011;3631;42.152;24.756;2024-03-08T14:06:51;10.93;;;8.00;;
7179;SDS011;3631;42.152;24.756;2024-03-08T14:09:23;9.97;;;7.77;;
7179;SDS011;3631;42.152;24.756;2024-03-08T14:11:50;18.00;;;8.83;;
7179;SDS011;3631;42.152;24.756;2024-03-08T14:14:20;11.30;;;7.93;;
7179;SDS011;3631;42.152;24.756;2024-03-08T14:16:48;11.30;;;8.83;;
7179;SDS011;3631;42.152;24.756;2024-03-08T14:19:18;11.70;;;9.03;;
7179;SDS011;3631;42.152;24.756;2024-03-08T14:21:45;8.93;;;7.70;;
7179;SDS011;3631;42.152;24.756;2024-03-08T14:24:13;10.43;;;8.47;;
7179;SDS011;3631;42.152;24.756;2024-03-08T14:26:42;13.63;;;8.20;;
7179;SDS011;3631;42.152;24.756;2024-03-08T14:29:09;9.50;;;7.33;;
7179;SDS011;3631;42.152;24.756;2024-03-08T14:31:36;11.30;;;7.53;;
7179;SDS011;3631;42.152;24.756;2024-03-08T14:34:03;8.20;;;7.30;;
7179;SDS011;3631;42.152;24.756;2024-03-08T14:36:32;11.17;;;7.53;;
7179;SDS011;3631;42.152;24.756;2024-03-08T14:38:59;8.30;;;7.00;;
7179;SDS011;3631;42.152;24.756;2024-03-08T14:41:26;12.37;;;8.07;;
7179;SDS011;3631;42.152;24.756;2024-03-08T14:43:54;13.83;;;9.40;;
7179;SDS011;3631;42.152;24.756;2024-03-08T14:46:22;17.13;;;9.83;;